createdAt,value
2022-11-30T00:01:26.216Z,85.03
2022-11-30T00:03:55.374Z,85.00
2022-11-30T00:06:26.236Z,85.12
2022-11-30T00:08:55.188Z,85.10
2022-11-30T00:11:25.856Z,85.32
2022-11-30T00:13:54.201Z,85.22
2022-11-30T00:16:22.958Z,85.32
2022-11-30T00:18:51.400Z,85.24
2022-11-30T00:21:19.965Z,85.32
2022-11-30T00:23:49.805Z,85.38
2022-11-30T00:26:22.391Z,85.39
2022-11-30T00:28:50.822Z,85.40
2022-11-30T00:31:19.711Z,85.54
2022-11-30T00:33:48.204Z,85.24
2022-11-30T00:36:18.529Z,84.81
2022-11-30T00:38:47.214Z,84.55
2022-11-30T00:41:18.522Z,84.45
2022-11-30T00:43:46.997Z,84.23
2022-11-30T00:46:15.647Z,84.04
2022-11-30T00:48:43.946Z,84.10
2022-11-30T00:51:13.085Z,84.09
2022-11-30T00:53:42.776Z,84.58
2022-11-30T00:56:12.028Z,84.39
2022-11-30T00:58:41.939Z,84.49
2022-11-30T01:01:10.386Z,84.61
2022-11-30T01:03:39.153Z,84.57
2022-11-30T01:06:09.485Z,84.75
2022-11-30T01:08:38.143Z,84.51
2022-11-30T01:11:09.576Z,83.88
2022-11-30T01:13:38.133Z,83.84
2022-11-30T01:16:13.062Z,83.78
2022-11-30T01:18:41.239Z,83.51
2022-11-30T01:21:11.303Z,83.74
2022-11-30T01:23:39.496Z,83.88
2022-11-30T01:26:08.170Z,83.66
2022-11-30T01:28:36.636Z,83.68
2022-11-30T01:31:07.263Z,83.58
2022-11-30T01:33:37.232Z,83.93
2022-11-30T01:36:08.280Z,83.69
2022-11-30T01:38:38.628Z,83.43
2022-11-30T01:41:09.807Z,83.52
2022-11-30T01:43:43.385Z,83.74
2022-11-30T01:46:25.988Z,83.92
2022-11-30T01:49:03.773Z,84.00
2022-11-30T01:51:37.097Z,84.16
2022-11-30T01:54:09.878Z,83.95
2022-11-30T01:56:42.604Z,83.90
2022-11-30T01:59:12.071Z,84.18
2022-11-30T02:01:40.329Z,84.03
2022-11-30T02:04:15.784Z,84.29
2022-11-30T02:06:45.113Z,84.10
2022-11-30T02:09:14.917Z,83.99
2022-11-30T02:11:43.287Z,84.01
2022-11-30T02:14:31.775Z,83.93
2022-11-30T02:17:08.048Z,84.05
2022-11-30T02:20:06.927Z,83.97
2022-11-30T02:22:51.392Z,84.04
2022-11-30T02:25:27.266Z,84.41
2022-11-30T02:28:21.071Z,84.46
2022-11-30T02:30:53.509Z,84.34
2022-11-30T02:33:26.522Z,84.29
2022-11-30T02:35:56.760Z,84.35
2022-11-30T02:38:27.709Z,84.48
2022-11-30T02:40:55.912Z,84.56
2022-11-30T02:43:26.755Z,84.83
2022-11-30T02:46:03.493Z,84.93
2022-11-30T02:48:41.775Z,84.43
2022-11-30T02:51:14.092Z,84.46
2022-11-30T02:53:42.868Z,84.57
2022-11-30T02:56:11.461Z,84.72
2022-11-30T02:58:40.407Z,85.06
2022-11-30T03:01:11.248Z,84.86
2022-11-30T03:03:39.521Z,84.75
2022-11-30T03:06:07.835Z,84.66
2022-11-30T03:08:35.965Z,84.59
2022-11-30T03:11:04.454Z,84.74
2022-11-30T03:13:32.946Z,84.93
2022-11-30T03:16:07.164Z,84.66
2022-11-30T03:18:37.260Z,84.39
2022-11-30T03:21:07.561Z,83.94
2022-11-30T03:23:36.541Z,83.64
2022-11-30T03:26:05.658Z,83.82
2022-11-30T03:28:33.984Z,83.88
2022-11-30T03:31:02.256Z,83.68
2022-11-30T03:33:30.474Z,83.56
2022-11-30T03:36:04.823Z,83.62
2022-11-30T03:38:33.503Z,83.50
2022-11-30T03:41:02.994Z,83.65
2022-11-30T03:43:31.322Z,83.89
2022-11-30T03:45:59.571Z,83.80
2022-11-30T03:48:27.832Z,83.66
2022-11-30T03:50:56.114Z,83.53
2022-11-30T03:53:26.613Z,83.78
2022-11-30T03:55:56.667Z,83.97
2022-11-30T03:58:25.788Z,83.87
2022-11-30T04:01:00.905Z,84.16
2022-11-30T04:03:29.476Z,84.15
2022-11-30T04:05:58.531Z,84.16
2022-11-30T04:08:29.279Z,84.35
2022-11-30T04:10:59.127Z,84.49
2022-11-30T04:13:28.130Z,84.45
2022-11-30T04:15:56.873Z,84.66
2022-11-30T04:18:27.065Z,84.61
2022-11-30T04:20:56.912Z,84.87
2022-11-30T04:23:30.058Z,85.06
2022-11-30T04:25:58.583Z,85.08
2022-11-30T04:28:26.823Z,85.24
2022-11-30T04:30:56.123Z,85.33
2022-11-30T04:33:24.289Z,85.92
2022-11-30T04:35:55.916Z,86.35
2022-11-30T04:38:24.878Z,86.49
2022-11-30T04:40:54.780Z,86.63
2022-11-30T04:43:23.674Z,87.04
2022-11-30T04:45:51.939Z,87.09
2022-11-30T04:48:20.803Z,86.87
2022-11-30T04:50:48.997Z,86.88
2022-11-30T04:53:17.147Z,86.63
2022-11-30T04:55:45.303Z,87.03
2022-11-30T04:58:14.818Z,87.44
2022-11-30T05:00:43.213Z,87.57
2022-11-30T05:03:11.718Z,87.60
2022-11-30T05:05:39.831Z,87.75
2022-11-30T05:08:08.243Z,87.72
2022-11-30T05:10:36.397Z,87.51
2022-11-30T05:13:04.600Z,87.86
2022-11-30T05:15:34.229Z,88.03
2022-11-30T05:18:03.000Z,88.34
2022-11-30T05:20:31.089Z,88.14
2022-11-30T05:22:59.272Z,87.77
2022-11-30T05:25:27.531Z,87.44
2022-11-30T05:27:55.696Z,87.15
2022-11-30T05:30:23.837Z,86.92
2022-11-30T05:32:54.058Z,87.05
2022-11-30T05:35:22.234Z,87.28
2022-11-30T05:37:50.404Z,87.28
2022-11-30T05:40:18.712Z,87.38
2022-11-30T05:42:46.968Z,87.44
2022-11-30T05:45:15.248Z,87.38
2022-11-30T05:47:43.388Z,87.07
2022-11-30T05:50:13.163Z,87.08
2022-11-30T05:52:41.302Z,87.35
2022-11-30T05:55:10.132Z,87.60
2022-11-30T05:57:38.607Z,87.43
2022-11-30T06:00:10.404Z,87.14
2022-11-30T06:02:41.744Z,87.12
2022-11-30T06:05:10.566Z,87.03
2022-11-30T06:07:40.332Z,87.34
2022-11-30T06:10:10.008Z,87.72
2022-11-30T06:12:38.182Z,87.94
2022-11-30T06:15:07.965Z,88.10
2022-11-30T06:17:37.908Z,88.31
2022-11-30T06:20:08.328Z,88.47
2022-11-30T06:22:36.664Z,88.52
2022-11-30T06:25:06.878Z,88.33
2022-11-30T06:27:35.001Z,87.93
2022-11-30T06:30:03.143Z,87.53
2022-11-30T06:32:31.436Z,87.37
2022-11-30T06:34:59.575Z,87.57
2022-11-30T06:37:27.704Z,87.57
2022-11-30T06:40:06.498Z,87.86
2022-11-30T06:42:37.443Z,87.95
2022-11-30T06:45:08.310Z,88.12
2022-11-30T06:47:36.783Z,88.21
2022-11-30T06:50:06.300Z,88.57
2022-11-30T06:52:34.420Z,88.84
2022-11-30T06:55:02.654Z,88.98
2022-11-30T06:57:31.359Z,88.74
2022-11-30T07:00:00.844Z,88.80
2022-11-30T07:02:28.934Z,89.05
2022-11-30T07:04:57.131Z,89.02
2022-11-30T07:07:25.448Z,88.93
2022-11-30T07:09:53.676Z,88.88
2022-11-30T07:12:21.894Z,88.80
2022-11-30T07:14:52.744Z,88.91
2022-11-30T07:17:22.350Z,89.10
2022-11-30T07:19:50.544Z,88.80
2022-11-30T07:22:18.736Z,89.05
2022-11-30T07:25:04.195Z,89.10
2022-11-30T07:27:32.377Z,89.18
2022-11-30T07:30:00.552Z,89.02
2022-11-30T07:32:30.212Z,88.94
2022-11-30T07:34:58.366Z,88.85
2022-11-30T07:37:27.037Z,88.96
2022-11-30T07:39:55.153Z,88.96
2022-11-30T07:42:23.505Z,88.91
2022-11-30T07:44:58.215Z,88.70
2022-11-30T07:47:27.017Z,88.57
2022-11-30T07:49:57.256Z,88.80
2022-11-30T07:52:25.640Z,88.83
2022-11-30T07:54:53.967Z,88.61
2022-11-30T07:57:22.148Z,88.49
2022-11-30T07:59:50.471Z,88.39
2022-11-30T08:02:18.808Z,88.35
2022-11-30T08:04:47.314Z,87.98
2022-11-30T08:07:17.393Z,87.57
2022-11-30T08:09:46.129Z,87.19
2022-11-30T08:12:14.280Z,86.80
2022-11-30T08:15:17.420Z,86.59
2022-11-30T08:17:31.356Z,86.51
2022-11-30T08:19:59.440Z,86.73
2022-11-30T08:22:28.986Z,86.76
2022-11-30T08:24:57.216Z,86.82
2022-11-30T08:27:25.443Z,86.53
2022-11-30T08:29:53.633Z,86.26
2022-11-30T08:32:21.815Z,85.90
2022-11-30T08:34:50.183Z,85.54
2022-11-30T08:37:18.576Z,85.03
2022-11-30T08:39:48.204Z,84.70
2022-11-30T08:42:16.373Z,84.29
2022-11-30T08:44:44.673Z,84.52
2022-11-30T08:47:13.401Z,84.77
2022-11-30T08:49:41.616Z,84.39
2022-11-30T08:52:18.160Z,84.70
2022-11-30T08:54:49.237Z,84.87
2022-11-30T08:57:18.965Z,84.83
2022-11-30T08:59:47.203Z,84.34
2022-11-30T09:02:18.371Z,83.91
2022-11-30T09:04:49.424Z,83.72
2022-11-30T09:07:18.121Z,82.86
2022-11-30T09:09:46.336Z,82.59
2022-11-30T09:12:15.972Z,82.17
2022-11-30T09:14:45.515Z,81.76
2022-11-30T09:17:14.149Z,82.01
2022-11-30T09:19:42.389Z,82.48
2022-11-30T09:22:10.629Z,82.20
2022-11-30T09:24:39.197Z,82.63
2022-11-30T09:27:07.416Z,82.23
2022-11-30T09:29:37.209Z,81.97
2022-11-30T09:32:06.882Z,81.82
2022-11-30T09:34:35.290Z,81.54
2022-11-30T09:37:03.521Z,81.21
2022-11-30T09:39:31.837Z,80.86
2022-11-30T09:42:22.628Z,80.40
2022-11-30T09:45:01.217Z,80.14
2022-11-30T09:47:54.390Z,80.31
2022-11-30T09:50:26.011Z,80.56
2022-11-30T09:52:57.693Z,80.87
2022-11-30T09:55:30.690Z,80.76
2022-11-30T09:58:03.458Z,80.82
2022-11-30T10:00:34.922Z,81.00
2022-11-30T10:03:05.824Z,80.59
2022-11-30T10:05:47.705Z,80.59
2022-11-30T10:08:37.325Z,80.91
2022-11-30T10:11:24.942Z,80.26
2022-11-30T10:14:03.723Z,80.27
2022-11-30T10:16:43.931Z,80.39
2022-11-30T10:19:24.990Z,79.92
2022-11-30T10:22:04.528Z,80.27
2022-11-30T10:24:51.375Z,80.22
2022-11-30T10:27:32.835Z,80.03
2022-11-30T10:30:02.715Z,79.91
2022-11-30T10:32:39.039Z,79.46
2022-11-30T10:35:22.598Z,79.66
2022-11-30T10:37:52.560Z,79.29
2022-11-30T10:40:24.899Z,78.64
2022-11-30T10:42:59.720Z,79.04
2022-11-30T10:45:30.266Z,78.37
2022-11-30T10:48:06.103Z,78.24
2022-11-30T10:50:35.361Z,77.45
2022-11-30T10:53:03.926Z,77.18
2022-11-30T10:55:36.686Z,76.82
2022-11-30T10:58:11.161Z,77.65
2022-11-30T11:00:39.405Z,77.75
2022-11-30T11:03:24.310Z,78.69
2022-11-30T11:06:07.060Z,78.79
2022-11-30T11:08:35.369Z,78.91
2022-11-30T11:11:04.280Z,78.72
2022-11-30T11:13:40.739Z,79.14
2022-11-30T11:16:11.425Z,79.01
2022-11-30T11:18:53.831Z,78.25
2022-11-30T11:21:23.900Z,78.24
2022-11-30T11:23:54.111Z,78.19
2022-11-30T11:26:25.393Z,78.47
2022-11-30T11:28:55.730Z,78.71
2022-11-30T11:31:36.761Z,78.63
2022-11-30T11:34:23.655Z,78.46
2022-11-30T11:37:07.086Z,78.79
2022-11-30T11:39:35.546Z,78.79
2022-11-30T11:42:06.708Z,78.73
2022-11-30T11:44:35.439Z,78.06
2022-11-30T11:47:07.248Z,78.19
2022-11-30T11:49:39.621Z,78.01
2022-11-30T11:52:17.842Z,77.79
2022-11-30T11:54:51.552Z,77.37
2022-11-30T11:57:23.980Z,77.89
2022-11-30T11:59:57.826Z,77.65
2022-11-30T12:02:34.228Z,77.75
2022-11-30T12:05:09.620Z,78.37
2022-11-30T12:07:43.309Z,77.86
2022-11-30T12:10:51.114Z,78.04
2022-11-30T12:13:17.578Z,77.92
2022-11-30T12:15:59.218Z,78.25
2022-11-30T12:18:35.135Z,78.37
2022-11-30T12:21:12.170Z,78.38
2022-11-30T12:23:59.731Z,78.47
2022-11-30T12:26:38.292Z,77.65
2022-11-30T12:29:24.652Z,77.75
2022-11-30T12:32:04.240Z,78.08
2022-11-30T12:34:49.179Z,78.27
2022-11-30T12:37:28.853Z,78.40
2022-11-30T12:40:04.339Z,78.46
2022-11-30T12:42:41.771Z,78.11
2022-11-30T12:45:18.609Z,78.28
2022-11-30T12:47:56.706Z,78.61
2022-11-30T12:50:39.394Z,78.18
2022-11-30T12:53:20.191Z,78.40
2022-11-30T12:55:57.686Z,78.13
2022-11-30T12:58:33.031Z,78.49
2022-11-30T13:01:12.321Z,78.79
2022-11-30T13:03:49.391Z,79.02
2022-11-30T13:06:22.969Z,78.93
2022-11-30T13:08:59.933Z,78.49
2022-11-30T13:11:34.967Z,78.08
2022-11-30T13:14:06.478Z,77.56
2022-11-30T13:16:36.095Z,77.60
2022-11-30T13:19:18.847Z,77.66
2022-11-30T13:21:54.437Z,77.68
2022-11-30T13:24:29.031Z,77.87
2022-11-30T13:27:01.925Z,77.60
2022-11-30T13:30:03.105Z,77.71
2022-11-30T13:32:57.484Z,77.97
2022-11-30T13:35:42.644Z,78.63
2022-11-30T13:38:36.462Z,78.20
2022-11-30T13:41:09.581Z,78.43
2022-11-30T13:43:41.600Z,78.30
2022-11-30T13:46:17.196Z,77.83
2022-11-30T13:48:46.093Z,77.73
2022-11-30T13:51:34.575Z,78.72
2022-11-30T13:54:35.847Z,77.90
2022-11-30T13:57:06.627Z,77.93
2022-11-30T13:59:41.295Z,78.44
2022-11-30T14:02:58.979Z,78.85
2022-11-30T14:05:42.807Z,79.26
2022-11-30T14:08:18.001Z,79.50
2022-11-30T14:10:48.167Z,79.62
2022-11-30T14:13:31.488Z,80.04
2022-11-30T14:16:02.035Z,80.11
2022-11-30T14:18:41.370Z,80.15
2022-11-30T14:21:23.668Z,80.62
2022-11-30T14:23:56.973Z,80.26
2022-11-30T14:26:30.281Z,80.13
2022-11-30T14:29:06.510Z,79.87
2022-11-30T14:31:41.731Z,79.30
2022-11-30T14:34:15.739Z,79.63
2022-11-30T14:36:49.277Z,79.23
2022-11-30T14:39:28.813Z,79.21
2022-11-30T14:41:57.021Z,79.46
2022-11-30T14:44:26.538Z,79.96
2022-11-30T14:46:54.951Z,79.59
2022-11-30T14:49:24.682Z,79.77
2022-11-30T14:51:58.851Z,79.93
2022-11-30T14:54:46.968Z,79.93
2022-11-30T14:57:23.090Z,79.88
2022-11-30T14:59:54.364Z,80.27
2022-11-30T15:02:27.512Z,80.25
2022-11-30T15:04:57.507Z,80.72
2022-11-30T15:07:27.109Z,80.52
2022-11-30T15:10:05.415Z,80.61
2022-11-30T15:12:35.447Z,81.03
2022-11-30T15:15:12.268Z,81.18
2022-11-30T15:17:56.229Z,81.07
2022-11-30T15:20:27.924Z,81.30
2022-11-30T15:22:58.113Z,81.39
2022-11-30T15:25:34.197Z,81.48
2022-11-30T15:28:04.700Z,82.01
2022-11-30T15:30:39.115Z,82.22
2022-11-30T15:33:08.219Z,81.86
2022-11-30T15:35:57.242Z,81.92
2022-11-30T15:38:27.310Z,81.72
2022-11-30T15:41:03.533Z,81.71
2022-11-30T15:43:37.785Z,82.34
2022-11-30T15:46:08.637Z,82.42
2022-11-30T15:48:40.506Z,82.68
2022-11-30T15:51:24.142Z,82.99
2022-11-30T15:53:53.233Z,83.23
2022-11-30T15:56:25.708Z,83.70
2022-11-30T15:59:06.900Z,83.32
2022-11-30T16:02:02.090Z,82.81
2022-11-30T16:04:56.007Z,82.23
2022-11-30T16:07:26.381Z,81.91
2022-11-30T16:10:06.335Z,81.91
2022-11-30T16:12:35.251Z,81.85
2022-11-30T16:15:08.343Z,82.22
2022-11-30T16:17:37.907Z,82.57
2022-11-30T16:20:09.609Z,82.86
2022-11-30T16:22:39.432Z,83.19
2022-11-30T16:25:13.201Z,83.36
2022-11-30T16:27:42.049Z,83.10
2022-11-30T16:30:11.800Z,82.87
2022-11-30T16:32:41.433Z,82.83
2022-11-30T16:35:19.446Z,83.05
2022-11-30T16:37:47.601Z,83.10
2022-11-30T16:40:16.237Z,83.20
2022-11-30T16:42:44.775Z,83.14
2022-11-30T16:45:16.815Z,83.00
2022-11-30T16:47:46.367Z,83.31
2022-11-30T16:50:15.605Z,83.58
2022-11-30T16:52:44.179Z,83.83
2022-11-30T16:55:15.267Z,83.53
2022-11-30T16:57:44.832Z,83.50
2022-11-30T17:00:15.645Z,83.64
2022-11-30T17:02:55.115Z,83.66
2022-11-30T17:05:24.019Z,83.76
2022-11-30T17:07:52.318Z,83.70
2022-11-30T17:10:21.116Z,83.90
2022-11-30T17:12:49.249Z,84.07
2022-11-30T17:15:19.746Z,84.16
2022-11-30T17:17:49.566Z,84.09
2022-11-30T17:20:19.272Z,84.29
2022-11-30T17:22:47.502Z,84.02
2022-11-30T17:25:17.457Z,83.95
2022-11-30T17:27:46.507Z,83.89
2022-11-30T17:30:16.614Z,84.14
2022-11-30T17:32:45.043Z,84.66
2022-11-30T17:35:15.421Z,84.84
2022-11-30T17:37:43.673Z,84.97
2022-11-30T17:40:14.819Z,85.19
2022-11-30T17:42:43.649Z,85.36
2022-11-30T17:45:12.153Z,85.37
2022-11-30T17:47:40.320Z,85.29
2022-11-30T17:50:10.471Z,85.39
2022-11-30T17:52:40.228Z,85.61
2022-11-30T17:55:09.846Z,85.67
2022-11-30T17:57:39.653Z,85.58
2022-11-30T18:00:09.855Z,85.30
2022-11-30T18:02:38.856Z,85.27
2022-11-30T18:05:08.817Z,85.41
2022-11-30T18:07:37.393Z,85.64
2022-11-30T18:10:09.630Z,85.84
2022-11-30T18:12:38.097Z,85.95
2022-11-30T18:15:09.271Z,85.96
2022-11-30T18:17:37.566Z,86.10
2022-11-30T18:20:08.230Z,86.40
2022-11-30T18:22:36.480Z,86.56
2022-11-30T18:25:06.072Z,86.67
2022-11-30T18:27:36.501Z,86.61
2022-11-30T18:30:10.121Z,86.81
2022-11-30T18:32:38.927Z,86.90
2022-11-30T18:35:08.774Z,86.81
2022-11-30T18:37:36.938Z,86.58
2022-11-30T18:40:07.742Z,86.54
2022-11-30T18:42:38.012Z,86.80
2022-11-30T18:45:08.931Z,86.93
2022-11-30T18:47:37.591Z,86.68
2022-11-30T18:50:07.996Z,86.58
2022-11-30T18:52:36.172Z,86.91
2022-11-30T18:55:06.875Z,86.96
2022-11-30T18:57:37.396Z,86.99
2022-11-30T19:00:08.690Z,86.68
2022-11-30T19:02:37.593Z,87.02
2022-11-30T19:05:13.199Z,87.22
2022-11-30T19:07:42.219Z,87.15
2022-11-30T19:10:11.077Z,86.78
2022-11-30T19:12:40.713Z,86.67
2022-11-30T19:15:10.518Z,86.81
2022-11-30T19:17:39.310Z,87.29
2022-11-30T19:20:09.645Z,87.59
2022-11-30T19:22:37.847Z,87.52
2022-11-30T19:25:08.927Z,87.74
2022-11-30T19:27:37.298Z,88.06
2022-11-30T19:30:09.368Z,88.61
2022-11-30T19:32:38.213Z,88.92
2022-11-30T19:35:08.517Z,88.96
2022-11-30T19:37:36.742Z,88.75
2022-11-30T19:40:07.309Z,88.76
2022-11-30T19:42:35.865Z,89.05
2022-11-30T19:45:07.605Z,89.40
2022-11-30T19:47:37.359Z,89.62
2022-11-30T19:50:07.585Z,89.53
2022-11-30T19:52:36.088Z,89.45
2022-11-30T19:55:05.513Z,89.46
2022-11-30T19:57:36.305Z,89.32
2022-11-30T20:00:08.589Z,89.18
2022-11-30T20:02:43.530Z,88.99
2022-11-30T20:05:11.787Z,88.62
2022-11-30T20:07:40.087Z,88.11
2022-11-30T20:10:13.251Z,87.90
2022-11-30T20:12:41.783Z,88.03
2022-11-30T20:15:12.217Z,87.84
2022-11-30T20:17:40.639Z,87.29
2022-11-30T20:20:10.166Z,87.46
2022-11-30T20:22:38.377Z,87.66
2022-11-30T20:25:09.175Z,87.72
2022-11-30T20:27:37.422Z,87.81
2022-11-30T20:30:08.371Z,87.80
2022-11-30T20:32:40.541Z,87.70
2022-11-30T20:35:09.877Z,88.13
2022-11-30T20:37:38.449Z,88.13
2022-11-30T20:40:09.356Z,88.10
2022-11-30T20:42:37.582Z,88.18
2022-11-30T20:45:08.196Z,87.90
2022-11-30T20:47:38.025Z,87.88
2022-11-30T20:50:08.523Z,87.92
2022-11-30T20:52:36.778Z,87.99
2022-11-30T20:55:06.829Z,88.02
2022-11-30T20:57:35.149Z,88.14
2022-11-30T21:00:10.174Z,88.12
2022-11-30T21:02:42.972Z,88.08
2022-11-30T21:05:11.268Z,87.78
2022-11-30T21:07:39.524Z,87.73
2022-11-30T21:10:09.840Z,87.70
2022-11-30T21:12:38.026Z,87.63
2022-11-30T21:15:09.169Z,87.82
2022-11-30T21:17:37.835Z,87.64
2022-11-30T21:20:10.087Z,87.51
2022-11-30T21:22:38.348Z,87.34
2022-11-30T21:25:08.219Z,87.37
2022-11-30T21:27:36.887Z,87.25
2022-11-30T21:30:08.397Z,87.37
2022-11-30T21:32:36.746Z,87.09
2022-11-30T21:35:05.901Z,86.65
2022-11-30T21:37:35.529Z,86.41
2022-11-30T21:40:03.966Z,86.22
2022-11-30T21:42:33.936Z,86.48
2022-11-30T21:45:02.114Z,86.51
2022-11-30T21:47:31.773Z,86.43
2022-11-30T21:50:00.660Z,86.52
2022-11-30T21:52:28.875Z,86.32
2022-11-30T21:54:58.430Z,86.12
2022-11-30T21:57:26.771Z,85.81
2022-11-30T21:59:55.093Z,85.19
2022-11-30T22:02:23.353Z,85.10
2022-11-30T22:04:51.480Z,85.63
2022-11-30T22:07:31.722Z,86.15
2022-11-30T22:10:01.435Z,86.82
2022-11-30T22:12:29.987Z,87.20
2022-11-30T22:14:58.147Z,87.16
2022-11-30T22:17:26.339Z,87.51
2022-11-30T22:19:54.591Z,87.97
2022-11-30T22:22:23.250Z,87.81
2022-11-30T22:24:51.450Z,87.33
2022-11-30T22:27:21.174Z,87.27
2022-11-30T22:29:50.896Z,87.08
2022-11-30T22:32:20.740Z,87.09
2022-11-30T22:34:48.895Z,87.15
2022-11-30T22:37:17.132Z,86.86
2022-11-30T22:39:45.713Z,86.95
2022-11-30T22:42:14.072Z,86.90
2022-11-30T22:44:43.573Z,86.71
2022-11-30T22:47:13.575Z,86.36
2022-11-30T22:49:41.859Z,85.89
2022-11-30T22:52:10.114Z,85.51
2022-11-30T22:54:38.333Z,85.12
2022-11-30T22:57:06.766Z,84.74
2022-11-30T22:59:34.888Z,84.97
2022-11-30T23:02:04.492Z,85.16
2022-11-30T23:04:32.927Z,85.57
2022-11-30T23:07:01.138Z,85.80
2022-11-30T23:09:29.582Z,86.04
2022-11-30T23:11:57.881Z,86.09
2022-11-30T23:14:26.025Z,86.16
2022-11-30T23:16:54.329Z,86.39
2022-11-30T23:19:26.425Z,86.49
2022-11-30T23:21:55.080Z,86.69
2022-11-30T23:24:26.517Z,86.47
2022-11-30T23:26:54.807Z,86.32
2022-11-30T23:29:27.807Z,86.35
2022-11-30T23:31:59.114Z,86.44
2022-11-30T23:34:28.656Z,86.12
2022-11-30T23:36:57.081Z,85.79
2022-11-30T23:39:25.775Z,85.34
2022-11-30T23:41:53.871Z,84.96
2022-11-30T23:44:25.198Z,84.23
2022-11-30T23:46:55.234Z,84.39
2022-11-30T23:49:26.065Z,85.43
2022-11-30T23:51:55.620Z,85.80
2022-11-30T23:54:28.751Z,86.08
2022-11-30T23:56:57.286Z,86.18
2022-11-30T23:59:27.215Z,86.51
